sensor_id;sensor_type;location;lat;lon;timestamp;P1;durP1;ratioP1;P2;durP2;ratioP2
21010;SDS011;10663;42.714;23.274;2023-06-04T00:00:15;4.93;;;4.10;;
21010;SDS011;10663;42.714;23.274;2023-06-04T00:01:46;5.05;;;3.95;;
21010;SDS011;10663;42.714;23.274;2023-06-04T00:03:16;4.37;;;3.97;;
21010;SDS011;10663;42.714;23.274;2023-06-04T00:04:47;4.63;;;4.22;;
21010;SDS011;10663;42.714;23.274;2023-06-04T00:06:18;4.72;;;3.95;;
21010;SDS011;10663;42.714;23.274;2023-06-04T00:07:49;4.63;;;4.22;;
21010;SDS011;10663;42.714;23.274;2023-06-04T00:09:20;4.32;;;3.70;;
21010;SDS011;10663;42.714;23.274;2023-06-04T00:10:51;4.30;;;3.80;;
21010;SDS011;10663;42.714;23.274;2023-06-04T00:12:22;4.13;;;3.72;;
21010;SDS011;10663;42.714;23.274;2023-06-04T00:13:53;5.20;;;4.07;;
21010;SDS011;10663;42.714;23.274;2023-06-04T00:15:24;3.90;;;3.42;;
21010;SDS011;10663;42.714;23.274;2023-06-04T00:16:55;4.25;;;3.85;;
21010;SDS011;10663;42.714;23.274;2023-06-04T00:18:26;4.95;;;3.80;;
21010;SDS011;10663;42.714;23.274;2023-06-04T00:19:57;4.73;;;3.80;;
21010;SDS011;10663;42.714;23.274;2023-06-04T00:21:28;4.60;;;4.20;;
21010;SDS011;10663;42.714;23.274;2023-06-04T00:22:59;5.25;;;3.78;;
21010;SDS011;10663;42.714;23.274;2023-06-04T00:24:30;3.90;;;3.60;;
21010;SDS011;10663;42.714;23.274;2023-06-04T00:26:03;4.80;;;4.00;;
21010;SDS011;10663;42.714;23.274;2023-06-04T00:27:34;4.00;;;3.67;;
21010;SDS011;10663;42.714;23.274;2023-06-04T00:29:05;4.07;;;3.60;;
21010;SDS011;10663;42.714;23.274;2023-06-04T00:30:36;4.78;;;3.72;;
21010;SDS011;10663;42.714;23.274;2023-06-04T00:32:07;4.78;;;3.70;;
21010;SDS011;10663;42.714;23.274;2023-06-04T00:33:38;4.32;;;3.50;;
21010;SDS011;10663;42.714;23.274;2023-06-04T00:35:09;4.53;;;3.90;;
21010;SDS011;10663;42.714;23.274;2023-06-04T00:36:40;4.95;;;3.88;;
21010;SDS011;10663;42.714;23.274;2023-06-04T00:38:11;4.10;;;3.57;;
21010;SDS011;10663;42.714;23.274;2023-06-04T00:39:42;4.22;;;3.63;;
21010;SDS011;10663;42.714;23.274;2023-06-04T00:41:13;4.05;;;3.65;;
21010;SDS011;10663;42.714;23.274;2023-06-04T00:42:44;3.92;;;3.63;;
21010;SDS011;10663;42.714;23.274;2023-06-04T00:44:15;5.95;;;3.70;;
21010;SDS011;10663;42.714;23.274;2023-06-04T00:45:46;4.57;;;3.60;;
21010;SDS011;10663;42.714;23.274;2023-06-04T00:47:18;4.68;;;3.60;;
21010;SDS011;10663;42.714;23.274;2023-06-04T00:48:50;5.57;;;3.92;;
21010;SDS011;10663;42.714;23.274;2023-06-04T00:50:22;3.85;;;3.50;;
21010;SDS011;10663;42.714;23.274;2023-06-04T00:51:54;4.50;;;3.70;;
21010;SDS011;10663;42.714;23.274;2023-06-04T00:53:25;4.95;;;3.67;;
21010;SDS011;10663;42.714;23.274;2023-06-04T00:54:57;3.67;;;3.38;;
21010;SDS011;10663;42.714;23.274;2023-06-04T00:56:28;4.00;;;3.60;;
21010;SDS011;10663;42.714;23.274;2023-06-04T00:57:59;3.60;;;3.30;;
21010;SDS011;10663;42.714;23.274;2023-06-04T00:59:31;4.38;;;3.97;;
21010;SDS011;10663;42.714;23.274;2023-06-04T01:01:04;4.20;;;3.80;;
21010;SDS011;10663;42.714;23.274;2023-06-04T01:02:38;4.20;;;3.80;;
21010;SDS011;10663;42.714;23.274;2023-06-04T01:04:16;4.85;;;4.05;;
21010;SDS011;10663;42.714;23.274;2023-06-04T01:06:02;5.00;;;3.83;;
21010;SDS011;10663;42.714;23.274;2023-06-04T01:07:44;4.43;;;3.90;;
21010;SDS011;10663;42.714;23.274;2023-06-04T01:09:17;4.03;;;3.60;;
21010;SDS011;10663;42.714;23.274;2023-06-04T01:10:52;4.07;;;3.67;;
21010;SDS011;10663;42.714;23.274;2023-06-04T01:12:24;3.97;;;3.60;;
21010;SDS011;10663;42.714;23.274;2023-06-04T01:13:55;4.18;;;3.80;;
21010;SDS011;10663;42.714;23.274;2023-06-04T01:15:26;7.03;;;3.87;;
21010;SDS011;10663;42.714;23.274;2023-06-04T01:17:08;3.75;;;3.38;;
21010;SDS011;10663;42.714;23.274;2023-06-04T01:18:48;3.72;;;3.40;;
21010;SDS011;10663;42.714;23.274;2023-06-04T01:21:55;4.67;;;3.73;;
21010;SDS011;10663;42.714;23.274;2023-06-04T01:23:40;4.15;;;3.75;;
21010;SDS011;10663;42.714;23.274;2023-06-04T01:25:20;4.38;;;3.40;;
21010;SDS011;10663;42.714;23.274;2023-06-04T01:26:56;4.10;;;3.40;;
21010;SDS011;10663;42.714;23.274;2023-06-04T01:28:28;4.83;;;3.50;;
21010;SDS011;10663;42.714;23.274;2023-06-04T01:30:00;4.55;;;3.67;;
21010;SDS011;10663;42.714;23.274;2023-06-04T01:31:31;3.63;;;3.15;;
21010;SDS011;10663;42.714;23.274;2023-06-04T01:33:03;4.13;;;3.17;;
21010;SDS011;10663;42.714;23.274;2023-06-04T01:34:43;4.25;;;3.30;;
21010;SDS011;10663;42.714;23.274;2023-06-04T01:36:16;3.60;;;3.30;;
21010;SDS011;10663;42.714;23.274;2023-06-04T01:37:48;3.60;;;3.20;;
21010;SDS011;10663;42.714;23.274;2023-06-04T01:39:22;3.70;;;3.28;;
21010;SDS011;10663;42.714;23.274;2023-06-04T01:40:53;3.70;;;3.20;;
21010;SDS011;10663;42.714;23.274;2023-06-04T01:42:31;3.40;;;3.10;;
21010;SDS011;10663;42.714;23.274;2023-06-04T01:44:02;3.47;;;3.13;;
21010;SDS011;10663;42.714;23.274;2023-06-04T01:45:33;3.47;;;3.00;;
21010;SDS011;10663;42.714;23.274;2023-06-04T01:47:04;3.42;;;3.13;;
21010;SDS011;10663;42.714;23.274;2023-06-04T01:48:35;4.20;;;3.80;;
21010;SDS011;10663;42.714;23.274;2023-06-04T01:50:07;4.57;;;3.35;;
21010;SDS011;10663;42.714;23.274;2023-06-04T01:51:39;3.60;;;3.30;;
21010;SDS011;10663;42.714;23.274;2023-06-04T01:53:10;3.92;;;3.13;;
21010;SDS011;10663;42.714;23.274;2023-06-04T01:54:41;3.88;;;3.20;;
21010;SDS011;10663;42.714;23.274;2023-06-04T01:56:13;4.10;;;3.70;;
21010;SDS011;10663;42.714;23.274;2023-06-04T01:57:45;4.17;;;3.67;;
21010;SDS011;10663;42.714;23.274;2023-06-04T01:59:17;3.65;;;3.17;;
21010;SDS011;10663;42.714;23.274;2023-06-04T02:00:49;3.97;;;3.58;;
21010;SDS011;10663;42.714;23.274;2023-06-04T02:02:20;3.97;;;3.13;;
21010;SDS011;10663;42.714;23.274;2023-06-04T02:03:51;3.28;;;2.97;;
21010;SDS011;10663;42.714;23.274;2023-06-04T02:05:22;3.53;;;3.22;;
21010;SDS011;10663;42.714;23.274;2023-06-04T02:06:54;4.53;;;3.08;;
21010;SDS011;10663;42.714;23.274;2023-06-04T02:08:26;4.00;;;3.00;;
21010;SDS011;10663;42.714;23.274;2023-06-04T02:09:57;3.30;;;3.00;;
21010;SDS011;10663;42.714;23.274;2023-06-04T02:11:28;3.30;;;3.00;;
21010;SDS011;10663;42.714;23.274;2023-06-04T02:13:00;3.47;;;3.17;;
21010;SDS011;10663;42.714;23.274;2023-06-04T02:14:35;3.20;;;2.90;;
21010;SDS011;10663;42.714;23.274;2023-06-04T02:16:07;3.30;;;3.00;;
21010;SDS011;10663;42.714;23.274;2023-06-04T02:17:38;3.25;;;2.95;;
21010;SDS011;10663;42.714;23.274;2023-06-04T02:19:13;4.50;;;3.08;;
21010;SDS011;10663;42.714;23.274;2023-06-04T02:20:45;3.10;;;2.90;;
21010;SDS011;10663;42.714;23.274;2023-06-04T02:22:17;4.05;;;3.05;;
21010;SDS011;10663;42.714;23.274;2023-06-04T02:23:48;5.30;;;3.40;;
21010;SDS011;10663;42.714;23.274;2023-06-04T02:25:19;3.30;;;2.87;;
21010;SDS011;10663;42.714;23.274;2023-06-04T02:26:50;3.03;;;2.80;;
21010;SDS011;10663;42.714;23.274;2023-06-04T02:28:20;3.58;;;3.25;;
21010;SDS011;10663;42.714;23.274;2023-06-04T02:29:51;3.30;;;3.00;;
21010;SDS011;10663;42.714;23.274;2023-06-04T02:31:22;3.53;;;2.85;;
21010;SDS011;10663;42.714;23.274;2023-06-04T02:32:53;3.33;;;2.83;;
21010;SDS011;10663;42.714;23.274;2023-06-04T02:34:25;3.50;;;3.20;;
21010;SDS011;10663;42.714;23.274;2023-06-04T02:35:56;3.92;;;2.88;;
21010;SDS011;10663;42.714;23.274;2023-06-04T02:37:27;3.07;;;2.77;;
21010;SDS011;10663;42.714;23.274;2023-06-04T02:38:58;3.30;;;3.00;;
21010;SDS011;10663;42.714;23.274;2023-06-04T02:40:29;2.92;;;2.65;;
21010;SDS011;10663;42.714;23.274;2023-06-04T02:42:00;3.22;;;2.92;;
21010;SDS011;10663;42.714;23.274;2023-06-04T02:43:31;5.55;;;2.90;;
21010;SDS011;10663;42.714;23.274;2023-06-04T02:45:02;3.05;;;2.80;;
21010;SDS011;10663;42.714;23.274;2023-06-04T02:46:33;3.35;;;2.90;;
21010;SDS011;10663;42.714;23.274;2023-06-04T02:48:04;4.20;;;3.80;;
21010;SDS011;10663;42.714;23.274;2023-06-04T02:49:35;4.63;;;3.92;;
21010;SDS011;10663;42.714;23.274;2023-06-04T02:51:06;4.05;;;3.33;;
21010;SDS011;10663;42.714;23.274;2023-06-04T02:52:40;5.30;;;3.90;;
21010;SDS011;10663;42.714;23.274;2023-06-04T02:54:11;3.45;;;3.00;;
21010;SDS011;10663;42.714;23.274;2023-06-04T02:55:42;3.20;;;2.90;;
21010;SDS011;10663;42.714;23.274;2023-06-04T02:57:14;3.80;;;3.00;;
21010;SDS011;10663;42.714;23.274;2023-06-04T02:59:04;4.03;;;3.10;;
21010;SDS011;10663;42.714;23.274;2023-06-04T03:00:35;3.80;;;3.00;;
21010;SDS011;10663;42.714;23.274;2023-06-04T03:02:06;5.60;;;3.10;;
21010;SDS011;10663;42.714;23.274;2023-06-04T03:03:37;3.33;;;2.88;;
21010;SDS011;10663;42.714;23.274;2023-06-04T03:05:09;3.22;;;2.80;;
21010;SDS011;10663;42.714;23.274;2023-06-04T03:06:41;3.22;;;2.70;;
21010;SDS011;10663;42.714;23.274;2023-06-04T03:08:15;4.28;;;2.80;;
21010;SDS011;10663;42.714;23.274;2023-06-04T03:09:46;2.90;;;2.60;;
21010;SDS011;10663;42.714;23.274;2023-06-04T03:11:17;3.65;;;3.05;;
21010;SDS011;10663;42.714;23.274;2023-06-04T03:12:52;3.13;;;2.80;;
21010;SDS011;10663;42.714;23.274;2023-06-04T03:14:23;3.38;;;2.80;;
21010;SDS011;10663;42.714;23.274;2023-06-04T03:15:54;3.30;;;2.90;;
21010;SDS011;10663;42.714;23.274;2023-06-04T03:17:25;4.53;;;4.03;;
21010;SDS011;10663;42.714;23.274;2023-06-04T03:18:57;5.25;;;4.75;;
21010;SDS011;10663;42.714;23.274;2023-06-04T03:20:29;5.38;;;4.88;;
21010;SDS011;10663;42.714;23.274;2023-06-04T03:21:59;5.57;;;4.97;;
21010;SDS011;10663;42.714;23.274;2023-06-04T03:23:32;4.53;;;3.25;;
21010;SDS011;10663;42.714;23.274;2023-06-04T03:25:04;4.30;;;3.88;;
21010;SDS011;10663;42.714;23.274;2023-06-04T03:26:36;4.25;;;3.58;;
21010;SDS011;10663;42.714;23.274;2023-06-04T03:28:07;4.40;;;4.00;;
21010;SDS011;10663;42.714;23.274;2023-06-04T03:29:38;5.53;;;3.80;;
21010;SDS011;10663;42.714;23.274;2023-06-04T03:31:10;5.03;;;3.85;;
21010;SDS011;10663;42.714;23.274;2023-06-04T03:32:41;4.93;;;4.05;;
21010;SDS011;10663;42.714;23.274;2023-06-04T03:34:14;5.85;;;4.82;;
21010;SDS011;10663;42.714;23.274;2023-06-04T03:35:45;6.97;;;4.75;;
21010;SDS011;10663;42.714;23.274;2023-06-04T03:37:18;5.77;;;4.40;;
21010;SDS011;10663;42.714;23.274;2023-06-04T03:38:50;4.73;;;3.80;;
21010;SDS011;10663;42.714;23.274;2023-06-04T03:40:21;5.03;;;3.85;;
21010;SDS011;10663;42.714;23.274;2023-06-04T03:41:53;4.28;;;3.88;;
21010;SDS011;10663;42.714;23.274;2023-06-04T03:43:26;5.15;;;3.35;;
21010;SDS011;10663;42.714;23.274;2023-06-04T03:45:01;5.05;;;3.90;;
21010;SDS011;10663;42.714;23.274;2023-06-04T03:46:34;5.30;;;4.20;;
21010;SDS011;10663;42.714;23.274;2023-06-04T03:48:06;5.75;;;4.30;;
21010;SDS011;10663;42.714;23.274;2023-06-04T03:49:39;4.88;;;3.80;;
21010;SDS011;10663;42.714;23.274;2023-06-04T03:51:11;4.90;;;3.95;;
21010;SDS011;10663;42.714;23.274;2023-06-04T03:52:42;7.15;;;4.55;;
21010;SDS011;10663;42.714;23.274;2023-06-04T03:54:13;7.85;;;6.47;;
21010;SDS011;10663;42.714;23.274;2023-06-04T03:55:47;4.22;;;3.83;;
21010;SDS011;10663;42.714;23.274;2023-06-04T03:57:18;4.78;;;3.67;;
21010;SDS011;10663;42.714;23.274;2023-06-04T03:58:49;4.40;;;4.00;;
21010;SDS011;10663;42.714;23.274;2023-06-04T04:00:21;4.45;;;3.92;;
21010;SDS011;10663;42.714;23.274;2023-06-04T04:01:56;4.30;;;3.78;;
21010;SDS011;10663;42.714;23.274;2023-06-04T04:03:27;4.60;;;3.57;;
21010;SDS011;10663;42.714;23.274;2023-06-04T04:05:02;5.72;;;3.88;;
21010;SDS011;10663;42.714;23.274;2023-06-04T04:06:33;4.37;;;3.87;;
21010;SDS011;10663;42.714;23.274;2023-06-04T04:08:04;3.97;;;3.57;;
21010;SDS011;10663;42.714;23.274;2023-06-04T04:09:38;4.35;;;3.47;;
21010;SDS011;10663;42.714;23.274;2023-06-04T04:11:12;4.00;;;3.60;;
21010;SDS011;10663;42.714;23.274;2023-06-04T04:12:44;7.35;;;3.95;;
21010;SDS011;10663;42.714;23.274;2023-06-04T04:14:15;4.07;;;3.67;;
21010;SDS011;10663;42.714;23.274;2023-06-04T04:15:46;5.32;;;3.50;;
21010;SDS011;10663;42.714;23.274;2023-06-04T04:17:17;4.40;;;3.50;;
21010;SDS011;10663;42.714;23.274;2023-06-04T04:18:48;4.18;;;3.50;;
21010;SDS011;10663;42.714;23.274;2023-06-04T04:20:20;6.78;;;3.90;;
21010;SDS011;10663;42.714;23.274;2023-06-04T04:21:56;4.85;;;4.15;;
21010;SDS011;10663;42.714;23.274;2023-06-04T04:23:27;4.60;;;4.20;;
21010;SDS011;10663;42.714;23.274;2023-06-04T04:24:59;6.20;;;4.38;;
21010;SDS011;10663;42.714;23.274;2023-06-04T04:26:32;5.53;;;4.43;;
21010;SDS011;10663;42.714;23.274;2023-06-04T04:28:03;5.03;;;4.53;;
21010;SDS011;10663;42.714;23.274;2023-06-04T04:29:37;5.72;;;4.50;;
21010;SDS011;10663;42.714;23.274;2023-06-04T04:31:09;6.00;;;5.30;;
21010;SDS011;10663;42.714;23.274;2023-06-04T04:32:41;7.50;;;5.30;;
21010;SDS011;10663;42.714;23.274;2023-06-04T04:34:21;7.78;;;5.60;;
21010;SDS011;10663;42.714;23.274;2023-06-04T04:35:54;6.22;;;5.10;;
21010;SDS011;10663;42.714;23.274;2023-06-04T04:37:26;7.22;;;5.40;;
21010;SDS011;10663;42.714;23.274;2023-06-04T04:39:00;6.30;;;5.40;;
21010;SDS011;10663;42.714;23.274;2023-06-04T04:40:37;6.22;;;5.63;;
21010;SDS011;10663;42.714;23.274;2023-06-04T04:42:10;6.95;;;5.70;;
21010;SDS011;10663;42.714;23.274;2023-06-04T04:43:40;7.28;;;5.50;;
21010;SDS011;10663;42.714;23.274;2023-06-04T04:45:19;7.45;;;5.80;;
21010;SDS011;10663;42.714;23.274;2023-06-04T04:46:52;7.43;;;5.90;;
21010;SDS011;10663;42.714;23.274;2023-06-04T04:48:23;7.47;;;6.03;;
21010;SDS011;10663;42.714;23.274;2023-06-04T04:49:54;6.55;;;5.85;;
21010;SDS011;10663;42.714;23.274;2023-06-04T04:51:26;6.97;;;6.03;;
21010;SDS011;10663;42.714;23.274;2023-06-04T04:52:58;7.65;;;5.95;;
21010;SDS011;10663;42.714;23.274;2023-06-04T04:54:29;8.43;;;6.30;;
21010;SDS011;10663;42.714;23.274;2023-06-04T04:56:00;7.53;;;5.97;;
21010;SDS011;10663;42.714;23.274;2023-06-04T04:57:31;7.45;;;5.90;;
21010;SDS011;10663;42.714;23.274;2023-06-04T04:59:03;7.20;;;5.85;;
21010;SDS011;10663;42.714;23.274;2023-06-04T05:00:34;7.43;;;6.13;;
21010;SDS011;10663;42.714;23.274;2023-06-04T05:02:06;7.05;;;6.05;;
21010;SDS011;10663;42.714;23.274;2023-06-04T05:03:37;6.30;;;5.70;;
21010;SDS011;10663;42.714;23.274;2023-06-04T05:05:08;6.47;;;5.67;;
21010;SDS011;10663;42.714;23.274;2023-06-04T05:06:41;6.38;;;5.45;;
21010;SDS011;10663;42.714;23.274;2023-06-04T05:08:12;6.25;;;5.05;;
21010;SDS011;10663;42.714;23.274;2023-06-04T05:09:46;5.63;;;4.97;;
21010;SDS011;10663;42.714;23.274;2023-06-04T05:11:16;7.83;;;5.20;;
21010;SDS011;10663;42.714;23.274;2023-06-04T05:12:56;5.47;;;4.97;;
21010;SDS011;10663;42.714;23.274;2023-06-04T05:14:37;6.72;;;5.47;;
21010;SDS011;10663;42.714;23.274;2023-06-04T05:16:09;7.68;;;4.93;;
21010;SDS011;10663;42.714;23.274;2023-06-04T05:17:43;5.18;;;4.68;;
21010;SDS011;10663;42.714;23.274;2023-06-04T05:19:17;7.03;;;4.88;;
21010;SDS011;10663;42.714;23.274;2023-06-04T05:20:49;5.10;;;4.60;;
21010;SDS011;10663;42.714;23.274;2023-06-04T05:22:20;5.20;;;4.47;;
21010;SDS011;10663;42.714;23.274;2023-06-04T05:23:51;6.47;;;5.10;;
21010;SDS011;10663;42.714;23.274;2023-06-04T05:25:25;7.28;;;5.15;;
21010;SDS011;10663;42.714;23.274;2023-06-04T05:26:59;6.00;;;5.15;;
21010;SDS011;10663;42.714;23.274;2023-06-04T05:28:31;6.13;;;4.82;;
21010;SDS011;10663;42.714;23.274;2023-06-04T05:30:05;5.38;;;4.88;;
21010;SDS011;10663;42.714;23.274;2023-06-04T05:31:37;5.50;;;4.53;;
21010;SDS011;10663;42.714;23.274;2023-06-04T05:33:11;5.20;;;4.63;;
21010;SDS011;10663;42.714;23.274;2023-06-04T05:34:49;7.15;;;4.53;;
21010;SDS011;10663;42.714;23.274;2023-06-04T05:36:21;6.20;;;4.93;;
21010;SDS011;10663;42.714;23.274;2023-06-04T05:37:57;7.13;;;5.53;;
21010;SDS011;10663;42.714;23.274;2023-06-04T05:39:32;6.78;;;4.90;;
21010;SDS011;10663;42.714;23.274;2023-06-04T05:41:10;5.05;;;4.53;;
21010;SDS011;10663;42.714;23.274;2023-06-04T05:42:43;6.72;;;4.70;;
21010;SDS011;10663;42.714;23.274;2023-06-04T05:44:14;5.97;;;5.38;;
21010;SDS011;10663;42.714;23.274;2023-06-04T05:45:45;7.00;;;6.18;;
21010;SDS011;10663;42.714;23.274;2023-06-04T05:47:17;6.65;;;4.85;;
21010;SDS011;10663;42.714;23.274;2023-06-04T05:48:49;5.93;;;4.75;;
21010;SDS011;10663;42.714;23.274;2023-06-04T05:50:22;5.78;;;4.72;;
21010;SDS011;10663;42.714;23.274;2023-06-04T05:51:53;5.55;;;4.97;;
21010;SDS011;10663;42.714;23.274;2023-06-04T05:53:24;6.25;;;4.70;;
21010;SDS011;10663;42.714;23.274;2023-06-04T05:54:56;6.82;;;5.00;;
21010;SDS011;10663;42.714;23.274;2023-06-04T05:56:27;6.85;;;5.22;;
21010;SDS011;10663;42.714;23.274;2023-06-04T05:58:00;6.50;;;5.28;;
21010;SDS011;10663;42.714;23.274;2023-06-04T05:59:31;10.05;;;7.63;;
21010;SDS011;10663;42.714;23.274;2023-06-04T06:01:03;8.07;;;6.60;;
21010;SDS011;10663;42.714;23.274;2023-06-04T06:02:34;8.25;;;6.97;;
21010;SDS011;10663;42.714;23.274;2023-06-04T06:04:05;10.10;;;6.10;;
21010;SDS011;10663;42.714;23.274;2023-06-04T06:05:36;6.57;;;5.30;;
21010;SDS011;10663;42.714;23.274;2023-06-04T06:07:07;6.68;;;5.43;;
21010;SDS011;10663;42.714;23.274;2023-06-04T06:08:38;6.47;;;5.00;;
21010;SDS011;10663;42.714;23.274;2023-06-04T06:10:10;6.28;;;5.07;;
21010;SDS011;10663;42.714;23.274;2023-06-04T06:11:42;6.05;;;5.13;;
21010;SDS011;10663;42.714;23.274;2023-06-04T06:13:13;6.05;;;4.97;;
21010;SDS011;10663;42.714;23.274;2023-06-04T06:14:44;9.98;;;6.53;;
21010;SDS011;10663;42.714;23.274;2023-06-04T06:16:15;7.10;;;6.00;;
21010;SDS011;10663;42.714;23.274;2023-06-04T06:17:47;8.23;;;5.37;;
21010;SDS011;10663;42.714;23.274;2023-06-04T06:19:18;7.68;;;5.40;;
21010;SDS011;10663;42.714;23.274;2023-06-04T06:20:50;6.85;;;5.63;;
21010;SDS011;10663;42.714;23.274;2023-06-04T06:22:22;6.78;;;4.90;;
21010;SDS011;10663;42.714;23.274;2023-06-04T06:23:53;6.00;;;5.38;;
21010;SDS011;10663;42.714;23.274;2023-06-04T06:25:25;9.02;;;5.97;;
21010;SDS011;10663;42.714;23.274;2023-06-04T06:27:02;7.13;;;5.13;;
21010;SDS011;10663;42.714;23.274;2023-06-04T06:28:34;8.05;;;5.60;;
21010;SDS011;10663;42.714;23.274;2023-06-04T06:30:07;7.57;;;6.10;;
21010;SDS011;10663;42.714;23.274;2023-06-04T06:31:39;8.38;;;5.28;;
21010;SDS011;10663;42.714;23.274;2023-06-04T06:33:11;8.55;;;5.88;;
21010;SDS011;10663;42.714;23.274;2023-06-04T06:34:42;6.88;;;5.45;;
21010;SDS011;10663;42.714;23.274;2023-06-04T06:36:13;6.90;;;5.43;;
21010;SDS011;10663;42.714;23.274;2023-06-04T06:37:44;5.28;;;4.68;;
21010;SDS011;10663;42.714;23.274;2023-06-04T06:39:17;5.40;;;4.90;;
21010;SDS011;10663;42.714;23.274;2023-06-04T06:40:48;5.68;;;4.70;;
21010;SDS011;10663;42.714;23.274;2023-06-04T06:42:19;5.33;;;4.83;;
21010;SDS011;10663;42.714;23.274;2023-06-04T06:43:52;6.72;;;4.97;;
21010;SDS011;10663;42.714;23.274;2023-06-04T06:45:24;7.10;;;5.45;;
21010;SDS011;10663;42.714;23.274;2023-06-04T06:46:55;6.88;;;4.53;;
21010;SDS011;10663;42.714;23.274;2023-06-04T06:48:26;5.75;;;4.50;;
21010;SDS011;10663;42.714;23.274;2023-06-04T06:49:57;5.25;;;4.75;;
21010;SDS011;10663;42.714;23.274;2023-06-04T06:51:28;6.45;;;5.13;;
21010;SDS011;10663;42.714;23.274;2023-06-04T06:52:59;5.20;;;4.65;;
21010;SDS011;10663;42.714;23.274;2023-06-04T06:54:30;6.60;;;5.10;;
21010;SDS011;10663;42.714;23.274;2023-06-04T06:56:01;7.03;;;5.50;;
21010;SDS011;10663;42.714;23.274;2023-06-04T06:57:32;6.00;;;5.22;;
21010;SDS011;10663;42.714;23.274;2023-06-04T06:59:04;7.07;;;4.93;;
21010;SDS011;10663;42.714;23.274;2023-06-04T07:00:34;6.55;;;5.15;;
21010;SDS011;10663;42.714;23.274;2023-06-04T07:02:05;6.32;;;4.88;;
21010;SDS011;10663;42.714;23.274;2023-06-04T07:03:37;6.65;;;5.25;;
21010;SDS011;10663;42.714;23.274;2023-06-04T07:05:10;7.90;;;5.25;;
21010;SDS011;10663;42.714;23.274;2023-06-04T07:06:41;6.25;;;4.60;;
21010;SDS011;10663;42.714;23.274;2023-06-04T07:08:12;6.75;;;4.88;;
21010;SDS011;10663;42.714;23.274;2023-06-04T07:09:43;6.65;;;4.70;;
21010;SDS011;10663;42.714;23.274;2023-06-04T07:11:14;6.27;;;4.47;;
21010;SDS011;10663;42.714;23.274;2023-06-04T07:12:46;8.02;;;5.38;;
21010;SDS011;10663;42.714;23.274;2023-06-04T07:14:18;6.25;;;4.75;;
21010;SDS011;10663;42.714;23.274;2023-06-04T07:15:48;5.13;;;4.63;;
21010;SDS011;10663;42.714;23.274;2023-06-04T07:17:19;6.35;;;4.30;;
21010;SDS011;10663;42.714;23.274;2023-06-04T07:18:51;6.65;;;4.53;;
21010;SDS011;10663;42.714;23.274;2023-06-04T07:20:21;4.85;;;4.35;;
21010;SDS011;10663;42.714;23.274;2023-06-04T07:21:53;7.00;;;4.90;;
21010;SDS011;10663;42.714;23.274;2023-06-04T07:23:25;6.35;;;4.80;;
21010;SDS011;10663;42.714;23.274;2023-06-04T07:24:56;5.88;;;4.70;;
21010;SDS011;10663;42.714;23.274;2023-06-04T07:26:27;6.47;;;5.10;;
21010;SDS011;10663;42.714;23.274;2023-06-04T07:28:01;5.65;;;4.72;;
21010;SDS011;10663;42.714;23.274;2023-06-04T07:29:34;5.82;;;5.13;;
21010;SDS011;10663;42.714;23.274;2023-06-04T07:31:05;7.75;;;5.60;;
21010;SDS011;10663;42.714;23.274;2023-06-04T07:32:36;8.52;;;5.90;;
21010;SDS011;10663;42.714;23.274;2023-06-04T07:34:06;9.50;;;6.30;;
21010;SDS011;10663;42.714;23.274;2023-06-04T07:35:38;8.27;;;6.22;;
21010;SDS011;10663;42.714;23.274;2023-06-04T07:37:08;6.57;;;5.82;;
21010;SDS011;10663;42.714;23.274;2023-06-04T07:38:40;9.27;;;6.30;;
21010;SDS011;10663;42.714;23.274;2023-06-04T07:40:11;6.20;;;5.60;;
21010;SDS011;10663;42.714;23.274;2023-06-04T07:41:42;9.02;;;6.30;;
21010;SDS011;10663;42.714;23.274;2023-06-04T07:43:13;7.23;;;6.10;;
21010;SDS011;10663;42.714;23.274;2023-06-04T07:44:44;8.95;;;6.97;;
21010;SDS011;10663;42.714;23.274;2023-06-04T07:46:14;7.80;;;5.97;;
21010;SDS011;10663;42.714;23.274;2023-06-04T07:47:48;9.10;;;6.22;;
21010;SDS011;10663;42.714;23.274;2023-06-04T07:49:19;7.50;;;6.15;;
21010;SDS011;10663;42.714;23.274;2023-06-04T07:50:50;8.55;;;5.90;;
21010;SDS011;10663;42.714;23.274;2023-06-04T07:52:28;7.50;;;6.18;;
21010;SDS011;10663;42.714;23.274;2023-06-04T07:53:59;6.75;;;6.03;;
21010;SDS011;10663;42.714;23.274;2023-06-04T07:55:31;7.65;;;5.80;;
21010;SDS011;10663;42.714;23.274;2023-06-04T07:57:02;7.50;;;5.70;;
21010;SDS011;10663;42.714;23.274;2023-06-04T07:58:33;6.30;;;5.47;;
21010;SDS011;10663;42.714;23.274;2023-06-04T08:00:04;6.97;;;5.20;;
21010;SDS011;10663;42.714;23.274;2023-06-04T08:01:43;6.78;;;5.43;;
21010;SDS011;10663;42.714;23.274;2023-06-04T08:03:14;6.85;;;5.68;;
21010;SDS011;10663;42.714;23.274;2023-06-04T08:04:49;8.33;;;6.97;;
21010;SDS011;10663;42.714;23.274;2023-06-04T08:06:20;6.85;;;5.68;;
21010;SDS011;10663;42.714;23.274;2023-06-04T08:07:51;6.70;;;6.00;;
21010;SDS011;10663;42.714;23.274;2023-06-04T08:09:23;7.55;;;5.50;;
21010;SDS011;10663;42.714;23.274;2023-06-04T08:10:54;8.83;;;6.00;;
21010;SDS011;10663;42.714;23.274;2023-06-04T08:12:25;8.45;;;6.35;;
21010;SDS011;10663;42.714;23.274;2023-06-04T08:13:57;8.52;;;6.47;;
21010;SDS011;10663;42.714;23.274;2023-06-04T08:15:28;7.50;;;6.43;;
21010;SDS011;10663;42.714;23.274;2023-06-04T08:17:19;10.35;;;6.75;;
21010;SDS011;10663;42.714;23.274;2023-06-04T08:18:50;7.75;;;6.95;;
21010;SDS011;10663;42.714;23.274;2023-06-04T08:20:27;10.13;;;6.30;;
21010;SDS011;10663;42.714;23.274;2023-06-04T08:22:08;9.98;;;6.47;;
21010;SDS011;10663;42.714;23.274;2023-06-04T08:23:48;7.03;;;6.32;;
21010;SDS011;10663;42.714;23.274;2023-06-04T08:25:39;9.30;;;6.50;;
21010;SDS011;10663;42.714;23.274;2023-06-04T08:27:30;10.55;;;7.80;;
21010;SDS011;10663;42.714;23.274;2023-06-04T08:29:07;9.00;;;8.02;;
21010;SDS011;10663;42.714;23.274;2023-06-04T08:30:43;9.02;;;7.82;;
21010;SDS011;10663;42.714;23.274;2023-06-04T08:32:26;9.85;;;8.60;;
21010;SDS011;10663;42.714;23.274;2023-06-04T08:34:17;9.98;;;8.93;;
21010;SDS011;10663;42.714;23.274;2023-06-04T08:35:48;10.90;;;9.00;;
21010;SDS011;10663;42.714;23.274;2023-06-04T08:37:18;11.52;;;9.10;;
21010;SDS011;10663;42.714;23.274;2023-06-04T08:38:50;12.90;;;9.40;;
21010;SDS011;10663;42.714;23.274;2023-06-04T08:40:23;12.57;;;9.85;;
21010;SDS011;10663;42.714;23.274;2023-06-04T08:41:54;12.15;;;9.55;;
21010;SDS011;10663;42.714;23.274;2023-06-04T08:43:30;10.10;;;8.20;;
21010;SDS011;10663;42.714;23.274;2023-06-04T08:45:03;10.20;;;8.20;;
21010;SDS011;10663;42.714;23.274;2023-06-04T08:46:36;8.75;;;7.50;;
21010;SDS011;10663;42.714;23.274;2023-06-04T08:48:11;10.63;;;7.93;;
21010;SDS011;10663;42.714;23.274;2023-06-04T08:49:43;8.57;;;7.40;;
21010;SDS011;10663;42.714;23.274;2023-06-04T08:51:17;8.57;;;7.50;;
21010;SDS011;10663;42.714;23.274;2023-06-04T08:52:53;10.93;;;8.43;;
21010;SDS011;10663;42.714;23.274;2023-06-04T08:54:25;9.10;;;8.13;;
21010;SDS011;10663;42.714;23.274;2023-06-04T08:55:56;10.23;;;7.78;;
21010;SDS011;10663;42.714;23.274;2023-06-04T08:57:27;9.18;;;7.30;;
21010;SDS011;10663;42.714;23.274;2023-06-04T08:59:02;9.35;;;7.28;;
21010;SDS011;10663;42.714;23.274;2023-06-04T09:00:34;8.20;;;6.65;;
21010;SDS011;10663;42.714;23.274;2023-06-04T09:02:05;10.40;;;7.22;;
21010;SDS011;10663;42.714;23.274;2023-06-04T09:03:38;13.38;;;8.27;;
21010;SDS011;10663;42.714;23.274;2023-06-04T09:05:09;12.00;;;8.33;;
21010;SDS011;10663;42.714;23.274;2023-06-04T09:06:42;10.02;;;8.30;;
21010;SDS011;10663;42.714;23.274;2023-06-04T09:08:13;10.13;;;8.55;;
21010;SDS011;10663;42.714;23.274;2023-06-04T09:09:47;9.80;;;7.85;;